createdAt,value
2022-11-23T00:01:42.935Z,21.00
2022-11-23T00:04:44.412Z,20.13
2022-11-23T00:07:46.107Z,22.20
2022-11-23T00:10:47.587Z,19.33
2022-11-23T00:13:49.173Z,18.80
2022-11-23T00:16:50.636Z,19.67
2022-11-23T00:19:52.133Z,19.27
2022-11-23T00:22:53.600Z,19.25
2022-11-23T00:25:55.070Z,18.73
2022-11-23T00:28:56.647Z,19.17
2022-11-23T00:32:01.664Z,18.17
2022-11-23T00:35:03.279Z,19.05
2022-11-23T00:38:05.920Z,18.95
2022-11-23T00:41:10.140Z,17.45
2022-11-23T00:44:11.857Z,18.05
2022-11-23T00:47:13.324Z,16.65
2022-11-23T00:50:15.002Z,16.73
2022-11-23T00:53:17.252Z,16.40
2022-11-23T00:56:20.094Z,15.23
2022-11-23T00:59:21.571Z,15.45
2022-11-23T01:02:23.150Z,15.45
2022-11-23T01:05:24.638Z,14.32
2022-11-23T01:08:26.132Z,15.23
2022-11-23T01:11:30.418Z,14.07
2022-11-23T01:14:31.898Z,14.45
2022-11-23T01:17:33.358Z,13.73
2022-11-23T01:20:34.852Z,14.45
2022-11-23T01:23:36.542Z,13.57
2022-11-23T01:26:38.693Z,13.80
2022-11-23T01:29:40.133Z,13.75
2022-11-23T01:32:41.698Z,13.25
2022-11-23T01:35:43.203Z,12.98
2022-11-23T01:38:46.216Z,12.13
2022-11-23T01:41:48.713Z,12.88
2022-11-23T01:44:52.695Z,13.30
2022-11-23T01:47:54.232Z,12.45
2022-11-23T01:50:57.634Z,12.73
2022-11-23T01:54:04.958Z,12.18
2022-11-23T01:57:13.793Z,12.57
2022-11-23T02:00:15.820Z,12.00
2022-11-23T02:03:18.540Z,11.98
2022-11-23T02:06:23.067Z,11.80
2022-11-23T02:09:24.831Z,11.80
2022-11-23T02:12:26.389Z,12.18
2022-11-23T02:15:27.931Z,11.85
2022-11-23T02:18:31.552Z,12.90
2022-11-23T02:21:33.145Z,11.25
2022-11-23T02:24:40.972Z,11.30
2022-11-23T02:27:47.126Z,11.85
2022-11-23T02:30:52.484Z,11.05
2022-11-23T02:33:57.891Z,10.73
2022-11-23T02:36:59.782Z,10.73
2022-11-23T02:40:11.544Z,10.32
2022-11-23T02:43:13.596Z,10.38
2022-11-23T02:46:15.275Z,10.05
2022-11-23T02:49:16.783Z,10.70
2022-11-23T02:52:19.434Z,10.00
2022-11-23T02:55:21.056Z,9.38
2022-11-23T02:58:22.579Z,9.65
2022-11-23T03:01:24.144Z,9.38
2022-11-23T03:04:27.804Z,8.73
2022-11-23T03:07:29.804Z,8.63
2022-11-23T03:10:34.029Z,9.05
2022-11-23T03:13:36.198Z,8.90
2022-11-23T03:16:38.271Z,8.52
2022-11-23T03:19:41.764Z,8.20
2022-11-23T03:22:45.341Z,7.85
2022-11-23T03:25:58.899Z,8.15
2022-11-23T03:29:05.639Z,8.43
2022-11-23T03:32:07.426Z,7.97
2022-11-23T03:35:09.709Z,8.32
2022-11-23T03:38:22.541Z,8.30
2022-11-23T03:41:24.160Z,8.13
2022-11-23T03:44:27.960Z,8.20
2022-11-23T03:47:29.558Z,8.20
2022-11-23T03:50:31.177Z,7.53
2022-11-23T03:53:32.822Z,8.18
2022-11-23T03:56:34.439Z,7.20
2022-11-23T03:59:36.205Z,7.90
2022-11-23T04:02:37.762Z,7.22
2022-11-23T04:05:43.907Z,7.82
2022-11-23T04:09:04.076Z,7.03
2022-11-23T04:12:18.132Z,7.00
2022-11-23T04:15:20.172Z,7.82
2022-11-23T04:18:21.720Z,7.28
2022-11-23T04:21:23.576Z,7.03
2022-11-23T04:24:25.303Z,7.30
2022-11-23T04:27:29.652Z,6.95
2022-11-23T04:30:31.184Z,6.63
2022-11-23T04:33:33.592Z,6.32
2022-11-23T04:36:35.285Z,6.25
2022-11-23T04:39:37.284Z,6.55
2022-11-23T04:43:04.780Z,6.15
2022-11-23T04:46:11.300Z,6.38
2022-11-23T04:49:13.043Z,6.40
2022-11-23T04:52:14.897Z,6.28
2022-11-23T04:55:20.838Z,5.82
2022-11-23T04:58:36.544Z,5.55
2022-11-23T05:01:38.252Z,5.45
2022-11-23T05:05:06.315Z,5.38
2022-11-23T05:08:08.583Z,5.10
2022-11-23T05:11:25.330Z,5.13
2022-11-23T05:14:26.972Z,5.05
2022-11-23T05:17:28.612Z,4.80
2022-11-23T05:20:30.706Z,5.00
2022-11-23T05:23:32.624Z,4.68
2022-11-23T05:26:34.505Z,4.47
2022-11-23T05:29:37.543Z,4.35
2022-11-23T05:32:40.831Z,4.88
2022-11-23T05:35:42.347Z,4.72
2022-11-23T05:38:43.968Z,4.30
2022-11-23T05:42:01.335Z,4.25
2022-11-23T05:45:22.395Z,4.45
2022-11-23T05:48:27.923Z,4.40
2022-11-23T05:51:32.940Z,4.20
2022-11-23T05:54:35.190Z,4.20
2022-11-23T05:57:45.798Z,4.90
2022-11-23T06:00:47.355Z,4.25
2022-11-23T06:03:51.530Z,4.43
2022-11-23T06:06:59.089Z,4.25
2022-11-23T06:10:01.668Z,4.18
2022-11-23T06:13:04.922Z,4.00
2022-11-23T06:16:08.155Z,4.20
2022-11-23T06:19:20.385Z,3.95
2022-11-23T06:22:22.210Z,3.92
2022-11-23T06:25:34.862Z,3.83
2022-11-23T06:28:44.704Z,3.63
2022-11-23T06:31:46.988Z,3.83
2022-11-23T06:34:48.991Z,3.67
2022-11-23T06:37:51.954Z,3.85
2022-11-23T06:40:56.964Z,3.85
2022-11-23T06:43:58.498Z,3.45
2022-11-23T06:47:16.507Z,3.28
2022-11-23T06:50:18.963Z,3.60
2022-11-23T06:53:22.221Z,4.00
2022-11-23T06:56:31.394Z,3.78
2022-11-23T06:59:33.193Z,3.60
2022-11-23T07:02:34.799Z,3.63
2022-11-23T07:05:38.551Z,3.17
2022-11-23T07:08:43.332Z,3.40
2022-11-23T07:11:57.602Z,3.30
2022-11-23T07:14:59.075Z,3.38
2022-11-23T07:18:05.625Z,3.30
2022-11-23T07:21:08.103Z,3.50
2022-11-23T07:24:10.264Z,2.90
2022-11-23T07:27:11.775Z,3.28
2022-11-23T07:30:13.744Z,3.33
2022-11-23T07:33:15.279Z,3.42
2022-11-23T07:36:17.080Z,3.60
2022-11-23T07:39:28.529Z,4.63
2022-11-23T07:42:45.021Z,8.48
2022-11-23T07:45:47.988Z,13.50
2022-11-23T07:48:51.577Z,17.45
2022-11-23T07:51:54.200Z,20.08
2022-11-23T07:54:56.907Z,25.35
2022-11-23T07:57:58.424Z,29.15
2022-11-23T08:00:59.939Z,33.90
2022-11-23T08:04:01.420Z,45.60
2022-11-23T08:07:03.799Z,58.08
2022-11-23T08:10:05.911Z,63.78
2022-11-23T08:13:07.555Z,70.63
2022-11-23T08:16:09.496Z,77.30
2022-11-23T08:19:10.953Z,83.80
2022-11-23T08:22:15.723Z,81.43
2022-11-23T08:25:17.540Z,80.03
2022-11-23T08:28:19.577Z,81.78
2022-11-23T08:31:21.067Z,84.55
2022-11-23T08:34:22.544Z,83.10
2022-11-23T08:37:23.990Z,84.55
2022-11-23T08:40:26.047Z,83.35
2022-11-23T08:43:28.600Z,79.45
2022-11-23T08:46:30.272Z,79.97
2022-11-23T08:49:31.717Z,79.07
2022-11-23T08:52:33.287Z,81.03
2022-11-23T08:55:34.868Z,87.03
2022-11-23T08:58:36.788Z,95.20
2022-11-23T09:01:38.303Z,93.97
2022-11-23T09:04:40.928Z,95.00
2022-11-23T09:07:42.541Z,105.15
2022-11-23T09:10:44.083Z,102.82
2022-11-23T09:13:45.532Z,109.55
2022-11-23T09:16:47.031Z,110.75
2022-11-23T09:19:50.307Z,112.03
2022-11-23T09:22:53.053Z,111.97
2022-11-23T09:25:54.553Z,109.95
2022-11-23T09:28:56.015Z,102.57
2022-11-23T09:31:57.453Z,118.85
2022-11-23T09:34:58.946Z,111.70
2022-11-23T09:38:01.256Z,120.75
2022-11-23T09:41:12.528Z,113.07
2022-11-23T09:44:43.660Z,113.53
2022-11-23T09:48:14.803Z,110.47
2022-11-23T09:51:18.659Z,105.43
2022-11-23T09:54:26.676Z,103.10
2022-11-23T09:57:31.944Z,100.97
2022-11-23T10:00:46.423Z,98.10
2022-11-23T10:03:49.395Z,93.03
2022-11-23T10:07:00.270Z,88.60
2022-11-23T10:10:10.573Z,85.32
2022-11-23T10:13:30.246Z,81.68
2022-11-23T10:16:49.394Z,77.93
2022-11-23T10:20:13.436Z,77.22
2022-11-23T10:23:45.255Z,73.45
2022-11-23T10:26:49.748Z,74.10
2022-11-23T10:29:56.321Z,72.47
2022-11-23T10:35:59.189Z,66.35
2022-11-23T10:39:02.105Z,70.75
2022-11-23T10:42:18.143Z,72.50
2022-11-23T10:45:25.302Z,68.13
2022-11-23T10:48:36.031Z,66.28
2022-11-23T10:51:37.860Z,60.10
2022-11-23T10:54:54.508Z,58.47
2022-11-23T10:57:57.112Z,56.22
2022-11-23T11:01:03.746Z,57.38
2022-11-23T11:04:22.934Z,57.38
2022-11-23T11:07:28.513Z,53.88
2022-11-23T11:11:01.056Z,56.00
2022-11-23T11:14:05.479Z,53.72
2022-11-23T11:17:26.499Z,53.53
2022-11-23T11:20:27.956Z,52.50
2022-11-23T11:23:31.267Z,52.80
2022-11-23T11:26:35.912Z,53.58
2022-11-23T11:29:45.460Z,53.47
2022-11-23T11:33:14.633Z,52.20
2022-11-23T11:36:16.929Z,53.40
2022-11-23T11:39:27.770Z,51.88
2022-11-23T11:42:34.921Z,50.72
2022-11-23T11:45:59.714Z,49.30
2022-11-23T11:49:22.736Z,48.35
2022-11-23T11:52:37.234Z,47.10
2022-11-23T11:56:04.414Z,45.08
2022-11-23T11:59:28.220Z,45.85
2022-11-23T12:02:45.152Z,43.15
2022-11-23T12:05:48.950Z,43.97
2022-11-23T12:09:12.968Z,44.65
2022-11-23T12:12:18.040Z,43.03
2022-11-23T12:19:09.163Z,39.70
2022-11-23T12:22:13.678Z,41.72
2022-11-23T12:25:33.223Z,36.67
2022-11-23T12:29:02.239Z,37.40
2022-11-23T12:32:25.592Z,37.08
2022-11-23T12:36:12.242Z,35.92
2022-11-23T12:39:32.404Z,36.50
2022-11-23T12:43:05.716Z,35.70
2022-11-23T12:46:20.898Z,34.45
2022-11-23T12:50:00.010Z,33.30
2022-11-23T12:53:35.744Z,32.55
2022-11-23T12:57:09.766Z,32.40
2022-11-23T13:00:19.797Z,30.48
2022-11-23T13:03:33.561Z,30.70
2022-11-23T13:07:29.520Z,30.60
2022-11-23T13:11:05.722Z,30.75
2022-11-23T13:14:31.290Z,29.08
2022-11-23T13:17:42.514Z,29.20
2022-11-23T13:21:07.571Z,28.45
2022-11-23T13:24:25.760Z,27.27
2022-11-23T13:27:31.704Z,27.55
2022-11-23T13:31:07.184Z,28.13
2022-11-23T13:34:02.658Z,29.35
2022-11-23T13:37:13.089Z,28.77
2022-11-23T13:40:24.595Z,28.65
2022-11-23T13:43:32.054Z,26.58
2022-11-23T13:46:35.727Z,27.50
2022-11-23T13:49:44.468Z,27.33
2022-11-23T13:52:50.724Z,26.40
2022-11-23T13:55:56.020Z,26.70
2022-11-23T13:58:58.991Z,26.40
2022-11-23T14:02:00.551Z,27.10
2022-11-23T14:05:31.501Z,24.98
2022-11-23T14:08:35.180Z,25.33
2022-11-23T14:11:50.747Z,24.45
2022-11-23T14:15:07.404Z,25.13
2022-11-23T14:18:36.065Z,25.27
2022-11-23T14:22:02.491Z,22.67
2022-11-23T14:25:35.299Z,22.60
2022-11-23T14:29:12.667Z,21.08
2022-11-23T14:32:50.263Z,20.52
2022-11-23T14:35:57.749Z,21.05
2022-11-23T14:39:14.466Z,20.17
2022-11-23T14:42:20.599Z,19.88
2022-11-23T14:45:25.363Z,19.65
2022-11-23T14:48:31.699Z,19.02
2022-11-23T14:51:34.872Z,20.15
2022-11-23T14:54:37.055Z,18.83
2022-11-23T14:57:42.365Z,19.35
2022-11-23T15:00:44.147Z,18.80
2022-11-23T15:03:56.276Z,18.05
2022-11-23T15:07:22.253Z,17.67
2022-11-23T15:10:38.906Z,17.40
2022-11-23T15:13:52.157Z,17.67
2022-11-23T15:16:53.682Z,16.23
2022-11-23T15:20:00.962Z,17.88
2022-11-23T15:23:03.834Z,17.05
2022-11-23T15:26:34.807Z,16.58
2022-11-23T15:29:39.151Z,16.15
2022-11-23T15:32:40.906Z,15.75
2022-11-23T15:35:42.546Z,15.32
2022-11-23T15:38:44.374Z,16.10
2022-11-23T15:41:47.204Z,15.30
2022-11-23T15:44:51.159Z,14.93
2022-11-23T15:47:53.076Z,14.10
2022-11-23T15:51:03.934Z,13.93
2022-11-23T15:54:11.911Z,15.38
2022-11-23T15:57:19.809Z,13.52
2022-11-23T16:00:24.810Z,13.18
2022-11-23T16:03:31.915Z,13.05
2022-11-23T16:06:41.525Z,12.88
2022-11-23T16:09:52.717Z,12.65
2022-11-23T16:13:02.731Z,12.50
2022-11-23T16:16:16.765Z,12.27
2022-11-23T16:19:24.871Z,13.02
2022-11-23T16:22:38.620Z,11.85
2022-11-23T16:25:40.212Z,11.65
2022-11-23T16:28:54.481Z,12.45
2022-11-23T16:31:59.812Z,10.38
2022-11-23T16:35:19.529Z,9.65
2022-11-23T16:38:21.096Z,8.98
2022-11-23T16:41:22.596Z,8.07
2022-11-23T16:44:24.110Z,8.77
2022-11-23T16:47:27.055Z,9.95
2022-11-23T16:50:33.770Z,9.45
2022-11-23T16:54:07.899Z,9.18
2022-11-23T16:56:56.862Z,8.52
2022-11-23T17:00:02.381Z,9.60
2022-11-23T17:03:03.952Z,8.90
2022-11-23T17:06:05.591Z,8.90
2022-11-23T17:09:08.282Z,9.40
2022-11-23T17:12:16.854Z,8.73
2022-11-23T17:15:21.453Z,9.18
2022-11-23T17:18:23.035Z,8.20
2022-11-23T17:21:24.481Z,8.32
2022-11-23T17:24:25.944Z,8.85
2022-11-23T17:27:28.235Z,7.57
2022-11-23T17:30:29.823Z,7.90
2022-11-23T17:33:31.338Z,8.65
2022-11-23T17:36:33.418Z,7.45
2022-11-23T17:39:35.781Z,8.00
2022-11-23T17:42:37.387Z,8.10
2022-11-23T17:45:38.987Z,7.22
2022-11-23T17:48:40.668Z,7.55
2022-11-23T17:51:43.106Z,8.02
2022-11-23T17:54:44.607Z,8.00
2022-11-23T17:57:46.082Z,7.20
2022-11-23T18:00:47.552Z,7.40
2022-11-23T18:03:49.646Z,7.70
2022-11-23T18:06:51.172Z,7.13
2022-11-23T18:09:52.734Z,7.50
2022-11-23T18:12:54.206Z,7.22
2022-11-23T18:15:55.853Z,7.35
2022-11-23T18:18:57.497Z,7.25
2022-11-23T18:21:59.144Z,6.53
2022-11-23T18:25:00.637Z,6.80
2022-11-23T18:28:02.121Z,7.35
2022-11-23T18:31:03.663Z,7.05
2022-11-23T18:34:05.424Z,6.70
2022-11-23T18:37:07.760Z,7.57
2022-11-23T18:40:09.713Z,7.22
2022-11-23T18:43:11.247Z,7.25
2022-11-23T18:46:19.272Z,7.13
2022-11-23T18:49:21.004Z,6.82
2022-11-23T18:52:22.856Z,7.05
2022-11-23T18:55:24.335Z,6.82
2022-11-23T18:58:25.840Z,6.45
2022-11-23T19:01:27.694Z,6.78
2022-11-23T19:04:32.367Z,6.40
2022-11-23T19:07:33.912Z,6.75
2022-11-23T19:10:37.643Z,6.72
2022-11-23T19:13:39.119Z,5.82
2022-11-23T19:16:40.601Z,6.68
2022-11-23T19:19:42.158Z,6.80
2022-11-23T19:22:43.639Z,6.75
2022-11-23T19:25:45.112Z,6.38
2022-11-23T19:28:47.216Z,7.05
2022-11-23T19:31:54.287Z,6.72
2022-11-23T19:34:55.754Z,6.18
2022-11-23T19:37:58.129Z,6.28
2022-11-23T19:40:59.628Z,5.95
2022-11-23T19:44:01.585Z,6.05
2022-11-23T19:47:06.172Z,6.10
2022-11-23T19:50:10.164Z,6.30
2022-11-23T19:53:13.060Z,6.72
2022-11-23T19:56:17.306Z,6.45
2022-11-23T19:59:18.872Z,5.95
2022-11-23T20:02:25.193Z,6.13
2022-11-23T20:05:27.249Z,6.00
2022-11-23T20:08:28.805Z,6.55
2022-11-23T20:11:32.244Z,7.05
2022-11-23T20:14:33.705Z,7.53
2022-11-23T20:17:35.188Z,8.25
2022-11-23T20:20:44.760Z,8.68
2022-11-23T20:23:47.466Z,8.82
2022-11-23T20:26:48.929Z,9.35
2022-11-23T20:29:50.399Z,9.38
2022-11-23T20:32:52.087Z,9.13
2022-11-23T20:35:53.637Z,8.25
2022-11-23T20:38:55.682Z,8.82
2022-11-23T20:41:58.549Z,9.25
2022-11-23T20:45:00.048Z,9.10
2022-11-23T20:48:01.554Z,8.95
2022-11-23T20:51:10.086Z,9.18
2022-11-23T20:54:12.204Z,9.18
2022-11-23T20:57:13.744Z,9.00
2022-11-23T21:00:16.757Z,8.68
2022-11-23T21:03:18.434Z,8.50
2022-11-23T21:06:21.115Z,8.25
2022-11-23T21:09:22.643Z,8.13
2022-11-23T21:12:47.591Z,8.13
2022-11-23T21:15:51.869Z,7.38
2022-11-23T21:18:53.356Z,7.60
2022-11-23T21:21:55.564Z,7.35
2022-11-23T21:24:57.067Z,7.88
2022-11-23T21:27:58.522Z,7.53
2022-11-23T21:31:10.115Z,7.85
2022-11-23T21:34:22.888Z,7.30
2022-11-23T21:37:25.988Z,7.28
2022-11-23T21:40:28.146Z,6.75
2022-11-23T21:43:31.223Z,6.85
2022-11-23T21:46:32.906Z,6.78
2022-11-23T21:49:34.459Z,6.82
2022-11-23T21:52:35.966Z,6.63
2022-11-23T21:55:37.457Z,6.32
2022-11-23T21:58:40.007Z,6.57
2022-11-23T22:01:42.450Z,7.10
2022-11-23T22:04:44.102Z,6.78
2022-11-23T22:08:00.531Z,6.97
2022-11-23T22:11:31.952Z,6.38
2022-11-23T22:14:33.841Z,6.63
2022-11-23T22:17:35.532Z,5.90
2022-11-23T22:20:37.530Z,6.22
2022-11-23T22:23:39.730Z,6.07
2022-11-23T22:26:41.827Z,6.93
2022-11-23T22:29:43.449Z,7.88
2022-11-23T22:32:45.054Z,7.43
2022-11-23T22:35:46.713Z,7.13
2022-11-23T22:38:48.600Z,7.07
2022-11-23T22:41:50.186Z,6.65
2022-11-23T22:44:51.784Z,7.15
2022-11-23T22:47:53.585Z,7.18
2022-11-23T22:50:56.854Z,6.88
2022-11-23T22:54:00.115Z,6.95
2022-11-23T22:57:01.719Z,6.82
2022-11-23T23:00:04.632Z,6.80
2022-11-23T23:03:06.380Z,6.93
2022-11-23T23:06:15.912Z,6.43
2022-11-23T23:09:17.840Z,7.38
2022-11-23T23:12:19.408Z,6.32
2022-11-23T23:15:21.606Z,6.50
2022-11-23T23:18:23.236Z,6.45
2022-11-23T23:21:26.443Z,6.40
2022-11-23T23:24:28.128Z,5.80
2022-11-23T23:27:30.697Z,5.97
2022-11-23T23:30:32.592Z,5.97
2022-11-23T23:33:35.201Z,6.00
2022-11-23T23:36:37.180Z,5.95
2022-11-23T23:39:38.868Z,5.43
2022-11-23T23:42:40.579Z,5.50
2022-11-23T23:45:42.301Z,5.88
2022-11-23T23:48:44.610Z,5.72
2022-11-23T23:51:51.292Z,5.75
2022-11-23T23:54:53.283Z,5.63
2022-11-23T23:57:54.901Z,5.13
